Time;durP1;ratioP1;P1;durP2;ratioP2;P2;SDS_P1;SDS_P2;PMS_P1;PMS_P2;Temp;Humidity;BMP_temperature;BMP_pressure;BME280_temperature;BME280_humidity;BME280_pressure;Samples;Min_cycle;Max_cycle;Signal;HPM_P1;HPM_P2
2021/03/04 00:01:20;;;;;;;10.38;4.93;;;6.20;99.90;;;;;;5038139;28;20075;-79
2021/03/04 00:03:46;;;;;;;12.27;5.20;;;6.20;99.90;;;;;;5036216;28;20417;-78
2021/03/04 00:06:11;;;;;;;8.35;4.53;;;6.30;99.90;;;;;;5040365;28;20036;-79
2021/03/04 00:08:37;;;;;;;9.65;4.72;;;6.30;99.90;;;;;;5040979;28;20030;-79
2021/03/04 00:11:02;;;;;;;9.63;4.20;;;6.20;99.90;;;;;;5046282;28;20036;-78
2021/03/04 00:13:28;;;;;;;10.25;4.80;;;6.30;99.90;;;;;;5046810;28;20072;-78
2021/03/04 00:15:54;;;;;;;7.13;4.05;;;6.30;99.90;;;;;;5041486;28;20029;-78
2021/03/04 00:18:21;;;;;;;7.57;4.50;;;6.30;99.90;;;;;;5043188;28;20037;-80
2021/03/04 00:20:49;;;;;;;7.40;4.40;;;6.30;99.90;;;;;;5042777;28;20053;-79
2021/03/04 00:23:14;;;;;;;7.68;4.55;;;6.30;99.90;;;;;;5044645;28;20029;-79
2021/03/04 00:25:40;;;;;;;7.22;4.13;;;6.30;99.90;;;;;;5040040;28;20036;-78
2021/03/04 00:28:06;;;;;;;8.25;4.35;;;6.30;99.90;;;;;;5043283;28;20037;-78
2021/03/04 00:30:31;;;;;;;11.05;4.78;;;6.30;99.90;;;;;;5046072;28;20103;-78
2021/03/04 00:32:57;;;;;;;8.15;4.43;;;6.30;99.90;;;;;;5042905;28;20028;-79
2021/03/04 00:35:24;;;;;;;9.68;4.38;;;6.30;99.90;;;;;;5045718;28;20035;-79
2021/03/04 00:37:49;;;;;;;10.15;4.20;;;6.30;99.90;;;;;;5040502;28;20040;-78
2021/03/04 00:40:18;;;;;;;9.70;4.32;;;6.20;99.90;;;;;;5045284;28;20026;-80
2021/03/04 00:42:45;;;;;;;10.23;4.68;;;6.20;99.90;;;;;;5041915;28;20060;-78
2021/03/04 00:45:18;;;;;;;8.50;4.30;;;6.20;99.90;;;;;;5039437;28;20021;-78
2021/03/04 00:47:44;;;;;;;9.27;4.40;;;6.20;99.90;;;;;;5040900;28;20039;-79
2021/03/04 00:50:12;;;;;;;6.63;4.20;;;6.10;99.90;;;;;;5036682;28;20064;-79
2021/03/04 00:52:37;;;;;;;7.35;4.50;;;6.10;99.90;;;;;;5039018;28;20048;-79
2021/03/04 00:55:04;;;;;;;8.25;4.50;;;6.00;99.90;;;;;;5040751;28;20059;-78
2021/03/04 00:57:30;;;;;;;8.10;4.22;;;6.00;99.90;;;;;;5043120;28;20041;-79
2021/03/04 00:59:55;;;;;;;9.95;4.40;;;6.00;99.90;;;;;;5040179;28;20380;-79
2021/03/04 01:02:21;;;;;;;8.20;4.35;;;6.00;99.90;;;;;;5034745;28;20501;-79
2021/03/04 01:04:47;;;;;;;8.00;4.10;;;5.90;99.90;;;;;;5039762;28;20025;-78
2021/03/04 01:07:12;;;;;;;8.05;4.60;;;5.90;99.90;;;;;;5039481;28;20029;-79
2021/03/04 01:09:38;;;;;;;8.75;4.40;;;5.90;99.90;;;;;;5043775;28;20033;-79
2021/03/04 01:12:04;;;;;;;7.20;4.00;;;5.90;99.90;;;;;;5040639;28;20024;-79
2021/03/04 01:14:30;;;;;;;7.22;3.92;;;5.90;99.90;;;;;;5039187;28;20029;-79
2021/03/04 01:16:57;;;;;;;7.95;4.13;;;5.90;99.90;;;;;;5035063;28;20042;-78
2021/03/04 01:19:23;;;;;;;8.05;4.40;;;5.90;99.90;;;;;;5044035;28;20412;-81
2021/03/04 01:21:48;;;;;;;7.07;3.90;;;5.90;99.90;;;;;;5042959;28;20116;-78
2021/03/04 01:24:15;;;;;;;6.72;4.03;;;5.90;99.90;;;;;;5038680;28;20115;-78
2021/03/04 01:26:41;;;;;;;8.75;4.32;;;5.90;99.90;;;;;;5040673;28;20026;-78
2021/03/04 01:29:06;;;;;;;8.45;4.10;;;5.90;99.90;;;;;;5038416;28;20485;-78
2021/03/04 01:31:32;;;;;;;9.77;4.45;;;5.90;99.90;;;;;;5044397;28;20037;-78
2021/03/04 01:33:58;;;;;;;9.65;4.65;;;5.90;99.90;;;;;;5056583;28;20024;-78
2021/03/04 01:36:23;;;;;;;7.35;3.95;;;5.90;99.90;;;;;;5045997;28;20074;-78
2021/03/04 01:38:50;;;;;;;7.47;4.25;;;5.90;99.90;;;;;;5039990;28;20538;-79
2021/03/04 01:41:16;;;;;;;8.00;3.50;;;5.90;99.90;;;;;;5032179;28;20033;-79
2021/03/04 01:43:41;;;;;;;8.10;3.63;;;5.90;99.90;;;;;;5042830;28;20021;-78
2021/03/04 01:46:07;;;;;;;7.88;3.45;;;5.90;99.90;;;;;;5042867;28;20025;-78
2021/03/04 01:48:33;;;;;;;7.90;3.65;;;5.90;99.90;;;;;;5034565;28;20032;-77
2021/03/04 01:50:59;;;;;;;7.97;3.50;;;5.90;99.90;;;;;;5036576;28;20038;-78
2021/03/04 01:53:25;;;;;;;6.85;3.42;;;5.90;99.90;;;;;;5041880;28;20026;-79
2021/03/04 01:55:51;;;;;;;10.10;3.70;;;5.90;99.90;;;;;;5043861;28;20043;-77
2021/03/04 01:58:17;;;;;;;8.63;3.75;;;5.90;99.90;;;;;;5046669;28;20056;-79
2021/03/04 02:00:43;;;;;;;8.77;3.50;;;5.80;99.90;;;;;;5042023;28;20049;-78
2021/03/04 02:03:09;;;;;;;6.30;3.65;;;5.80;99.90;;;;;;5040610;28;20044;-78
2021/03/04 02:05:34;;;;;;;10.13;3.92;;;5.80;99.90;;;;;;5039037;28;20069;-77
2021/03/04 02:08:13;;;;;;;7.10;3.80;;;5.80;99.90;;;;;;5039037;28;20141;-78
2021/03/04 02:10:41;;;;;;;8.37;3.73;;;5.80;99.90;;;;;;5043269;28;20025;-78
2021/03/04 02:13:09;;;;;;;8.85;3.80;;;5.80;99.90;;;;;;5040068;28;20021;-78
2021/03/04 02:15:59;;;;;;;7.57;3.83;;;5.80;99.90;;;;;;5045438;28;21321;-78
2021/03/04 02:18:28;;;;;;;6.40;3.47;;;5.80;99.90;;;;;;5043326;28;20087;-79
2021/03/04 02:21:15;;;;;;;7.05;3.38;;;5.80;99.90;;;;;;5042200;28;20127;-78
2021/03/04 02:24:05;;;;;;;6.97;3.83;;;5.90;99.90;;;;;;5044738;28;20456;-78
2021/03/04 02:26:43;;;;;;;7.60;3.63;;;5.90;99.90;;;;;;5049680;28;20132;-78
2021/03/04 02:29:11;;;;;;;7.63;4.22;;;5.90;99.90;;;;;;5059933;28;20055;-78
2021/03/04 02:31:39;;;;;;;9.80;4.63;;;5.90;99.90;;;;;;5048223;28;20445;-78
2021/03/04 02:34:08;;;;;;;7.65;4.07;;;5.90;99.90;;;;;;5047826;28;20083;-78
2021/03/04 02:36:36;;;;;;;8.07;3.67;;;5.90;99.90;;;;;;5045803;28;20025;-77
2021/03/04 02:39:07;;;;;;;7.80;4.03;;;5.90;99.90;;;;;;5043699;28;20467;-76
2021/03/04 02:41:34;;;;;;;8.43;4.00;;;5.90;99.90;;;;;;5043304;28;20087;-78
2021/03/04 02:44:05;;;;;;;8.25;3.90;;;5.90;99.90;;;;;;5037183;28;20025;-78
2021/03/04 02:46:33;;;;;;;7.93;3.72;;;5.90;99.90;;;;;;5033840;28;20505;-79
2021/03/04 02:48:59;;;;;;;9.45;3.97;;;5.90;99.90;;;;;;5049594;28;20116;-79
2021/03/04 02:51:26;;;;;;;6.63;4.28;;;5.90;99.90;;;;;;5039542;28;20041;-80
2021/03/04 02:53:53;;;;;;;8.20;3.80;;;5.90;99.90;;;;;;5048135;28;20158;-79
2021/03/04 02:56:20;;;;;;;7.32;4.07;;;5.90;99.90;;;;;;5044785;28;20341;-78
2021/03/04 02:58:47;;;;;;;7.65;3.80;;;5.90;99.90;;;;;;5046677;28;20056;-77
2021/03/04 03:01:14;;;;;;;7.03;3.78;;;5.90;99.90;;;;;;5047137;28;20041;-78
2021/03/04 03:03:41;;;;;;;8.23;3.65;;;5.90;99.90;;;;;;5044025;28;20040;-78
2021/03/04 03:06:07;;;;;;;9.02;3.67;;;6.00;99.90;;;;;;5049846;28;20032;-77
2021/03/04 03:08:33;;;;;;;8.50;4.60;;;6.00;99.90;;;;;;5040784;28;20033;-77
2021/03/04 03:11:00;;;;;;;7.38;3.90;;;6.00;99.90;;;;;;5050087;28;20025;-77
2021/03/04 03:13:27;;;;;;;8.20;3.80;;;5.90;99.90;;;;;;5044684;28;20062;-76
2021/03/04 03:15:53;;;;;;;6.18;3.65;;;5.90;99.90;;;;;;5046586;28;20029;-77
2021/03/04 03:18:18;;;;;;;8.15;4.18;;;5.90;99.90;;;;;;5040782;28;20094;-79
2021/03/04 03:20:44;;;;;;;7.65;4.15;;;5.90;99.90;;;;;;5041736;28;20114;-79
2021/03/04 03:23:10;;;;;;;8.02;4.25;;;6.00;99.90;;;;;;5038461;28;20076;-78
2021/03/04 03:25:36;;;;;;;7.97;4.10;;;6.00;99.90;;;;;;5042891;28;20035;-79
2021/03/04 03:28:02;;;;;;;6.30;4.10;;;6.00;99.90;;;;;;5042594;28;20512;-78
2021/03/04 03:30:29;;;;;;;8.35;4.00;;;6.00;99.90;;;;;;5047817;28;20250;-78
2021/03/04 03:33:03;;;;;;;8.73;4.13;;;6.00;99.90;;;;;;5044409;28;20052;-78
2021/03/04 03:35:30;;;;;;;11.75;4.35;;;6.00;99.90;;;;;;5043280;28;20033;-79
2021/03/04 03:37:58;;;;;;;9.07;4.03;;;6.00;99.90;;;;;;5046205;28;20036;-78
2021/03/04 03:40:26;;;;;;;7.82;3.90;;;6.00;99.90;;;;;;5043657;28;20033;-78
2021/03/04 03:42:57;;;;;;;8.60;4.43;;;6.00;99.90;;;;;;5036078;28;20068;-78
2021/03/04 03:45:27;;;;;;;10.38;4.72;;;6.10;99.90;;;;;;5047616;28;20025;-78
2021/03/04 03:47:54;;;;;;;8.05;4.38;;;6.00;99.90;;;;;;5048001;28;20435;-78
2021/03/04 03:50:20;;;;;;;9.50;4.53;;;6.00;99.90;;;;;;5040849;28;20276;-78
2021/03/04 03:52:47;;;;;;;9.50;4.22;;;6.00;99.90;;;;;;5042619;28;20025;-78
2021/03/04 03:55:13;;;;;;;10.32;4.30;;;6.10;99.90;;;;;;5046231;28;20144;-78
2021/03/04 03:57:41;;;;;;;8.95;4.35;;;6.00;99.90;;;;;;5048241;28;20037;-77
2021/03/04 04:00:08;;;;;;;7.95;4.05;;;6.00;99.90;;;;;;5047252;28;20511;-77
2021/03/04 04:02:34;;;;;;;9.50;4.65;;;6.00;99.90;;;;;;5041426;28;20041;-78
2021/03/04 04:05:01;;;;;;;10.13;4.57;;;6.10;99.90;;;;;;5039817;28;20051;-78
2021/03/04 04:07:29;;;;;;;7.80;3.92;;;6.00;99.90;;;;;;5043426;28;20037;-78
2021/03/04 04:09:56;;;;;;;10.02;4.18;;;6.00;99.90;;;;;;5049185;28;20075;-77
2021/03/04 04:12:22;;;;;;;8.88;4.18;;;6.00;99.90;;;;;;5049309;28;20032;-78
2021/03/04 04:14:48;;;;;;;10.55;4.53;;;6.00;99.90;;;;;;5047363;28;20032;-79
2021/03/04 04:17:13;;;;;;;7.93;3.95;;;6.00;99.90;;;;;;5046333;28;20120;-78
2021/03/04 04:19:40;;;;;;;8.18;4.30;;;6.00;99.90;;;;;;5042025;28;20033;-80
2021/03/04 04:22:05;;;;;;;8.95;4.47;;;6.00;99.90;;;;;;5042464;28;20248;-79
2021/03/04 04:24:32;;;;;;;9.50;4.30;;;6.00;99.90;;;;;;5040616;28;20038;-78
2021/03/04 04:26:57;;;;;;;10.70;4.35;;;6.00;99.90;;;;;;5040259;28;20025;-78
2021/03/04 04:29:24;;;;;;;13.00;4.90;;;6.00;99.90;;;;;;5042211;28;20123;-79
2021/03/04 04:31:49;;;;;;;9.38;4.20;;;5.90;99.90;;;;;;5043510;28;20021;-78
2021/03/04 04:34:15;;;;;;;7.63;4.20;;;6.00;99.90;;;;;;5054571;28;20032;-77
2021/03/04 04:36:40;;;;;;;9.57;4.30;;;6.00;99.90;;;;;;5042874;28;20056;-78
2021/03/04 04:39:06;;;;;;;9.48;4.70;;;6.00;99.90;;;;;;5039148;28;20030;-77
2021/03/04 04:41:32;;;;;;;9.25;4.57;;;6.00;99.90;;;;;;5042564;28;20078;-78
2021/03/04 04:43:57;;;;;;;7.13;3.72;;;5.90;99.90;;;;;;5047753;28;20385;-79
2021/03/04 04:46:23;;;;;;;7.90;3.88;;;6.00;99.90;;;;;;5046808;28;20037;-79
2021/03/04 04:48:49;;;;;;;8.98;4.13;;;5.90;99.90;;;;;;5042577;28;20037;-78
2021/03/04 04:51:14;;;;;;;10.65;5.13;;;5.90;99.90;;;;;;5036588;28;20033;-78
2021/03/04 04:53:41;;;;;;;10.95;4.50;;;5.90;99.90;;;;;;5046213;28;20033;-79
2021/03/04 04:56:07;;;;;;;7.75;4.07;;;5.90;99.90;;;;;;5043338;28;20037;-78
2021/03/04 04:58:33;;;;;;;8.38;4.20;;;5.90;99.90;;;;;;5038441;28;20063;-78
2021/03/04 05:00:59;;;;;;;8.63;4.40;;;5.90;99.90;;;;;;5041994;28;20121;-78
2021/03/04 05:03:25;;;;;;;8.75;4.10;;;5.90;99.90;;;;;;5039259;28;20120;-78
2021/03/04 05:05:50;;;;;;;7.40;3.63;;;5.90;99.90;;;;;;5047884;28;20032;-79
2021/03/04 05:08:16;;;;;;;9.82;3.97;;;5.90;99.90;;;;;;5044664;28;20025;-79
2021/03/04 05:10:42;;;;;;;7.97;4.53;;;5.90;99.90;;;;;;5045443;28;20188;-77
2021/03/04 05:13:08;;;;;;;9.07;4.03;;;5.90;99.90;;;;;;5039714;28;20089;-77
2021/03/04 05:15:33;;;;;;;9.52;4.75;;;5.90;99.90;;;;;;5047875;28;20068;-79
2021/03/04 05:17:59;;;;;;;8.32;4.30;;;5.90;99.90;;;;;;5039750;28;20433;-76
2021/03/04 05:20:25;;;;;;;7.25;3.92;;;5.80;99.90;;;;;;5043357;28;20104;-75
2021/03/04 05:22:50;;;;;;;12.15;4.90;;;5.90;99.90;;;;;;5039168;28;20524;-77
2021/03/04 05:25:16;;;;;;;11.48;4.07;;;5.90;99.90;;;;;;5043971;28;20637;-77
2021/03/04 05:27:42;;;;;;;7.82;4.45;;;5.90;99.90;;;;;;5038386;28;20063;-77
2021/03/04 05:30:08;;;;;;;8.02;4.50;;;5.90;99.90;;;;;;5042032;28;20115;-79
2021/03/04 05:32:35;;;;;;;10.45;4.20;;;5.90;99.90;;;;;;5045571;28;20033;-75
2021/03/04 05:35:01;;;;;;;9.20;4.32;;;5.90;99.90;;;;;;5043818;28;20029;-76
2021/03/04 05:37:27;;;;;;;7.07;4.28;;;5.90;99.90;;;;;;5042199;28;20106;-75
2021/03/04 05:39:52;;;;;;;9.43;4.55;;;5.90;99.90;;;;;;5043421;28;20051;-75
2021/03/04 05:42:18;;;;;;;7.97;4.18;;;5.90;99.90;;;;;;5043337;28;20047;-74
2021/03/04 05:44:44;;;;;;;10.65;4.47;;;5.90;99.90;;;;;;5040888;28;20084;-75
2021/03/04 05:47:10;;;;;;;9.65;4.57;;;5.90;99.90;;;;;;5043042;28;20045;-75
2021/03/04 05:50:01;;;;;;;14.10;4.63;;;6.00;99.90;;;;;;5042470;28;20032;-75
2021/03/04 05:52:29;;;;;;;11.45;4.32;;;5.90;99.90;;;;;;5042358;28;20057;-76
2021/03/04 05:54:57;;;;;;;8.88;4.20;;;5.90;99.90;;;;;;5041083;28;20094;-75
2021/03/04 05:57:22;;;;;;;9.15;4.25;;;5.90;99.90;;;;;;5045158;28;20052;-76
2021/03/04 05:59:53;;;;;;;10.38;4.18;;;5.90;99.90;;;;;;5034744;28;20111;-76
2021/03/04 06:02:21;;;;;;;8.18;4.45;;;5.90;99.90;;;;;;5042208;28;20040;-75
2021/03/04 06:04:48;;;;;;;8.45;4.18;;;5.90;99.90;;;;;;5042377;28;20130;-75
2021/03/04 06:07:14;;;;;;;8.25;4.15;;;5.90;99.90;;;;;;5041725;28;20597;-75
2021/03/04 06:09:39;;;;;;;9.00;3.65;;;5.90;99.90;;;;;;5040563;28;20021;-75
2021/03/04 06:12:06;;;;;;;11.27;3.72;;;5.90;99.90;;;;;;5046237;28;20037;-75
2021/03/04 06:14:34;;;;;;;12.32;3.63;;;5.90;99.90;;;;;;5046227;28;20033;-76
2021/03/04 06:17:17;;;;;;;12.25;3.78;;;5.90;99.90;;;;;;5047259;28;20544;-78
2021/03/04 06:20:00;;;;;;;10.75;3.83;;;6.00;99.90;;;;;;5045834;28;20396;-77
2021/03/04 06:22:37;;;;;;;8.25;3.75;;;6.00;99.90;;;;;;5037804;28;20059;-77
2021/03/04 06:25:10;;;;;;;7.57;3.83;;;6.00;99.90;;;;;;5032472;28;20097;-77
2021/03/04 06:27:41;;;;;;;10.32;3.75;;;6.00;99.90;;;;;;5038072;28;20029;-78
2021/03/04 06:30:09;;;;;;;7.68;3.63;;;6.00;99.90;;;;;;5042421;28;20048;-78
2021/03/04 06:32:36;;;;;;;9.77;3.63;;;6.10;99.90;;;;;;5038812;28;20086;-77
2021/03/04 06:35:14;;;;;;;8.73;4.10;;;6.10;99.90;;;;;;5044650;28;20033;-78
2021/03/04 06:37:42;;;;;;;6.25;3.20;;;6.10;99.90;;;;;;5036072;28;20036;-77
2021/03/04 06:40:19;;;;;;;8.20;3.65;;;6.20;99.90;;;;;;5039325;28;20024;-78
2021/03/04 06:42:46;;;;;;;9.48;3.75;;;6.30;99.90;;;;;;5039222;28;20502;-79
2021/03/04 06:45:21;;;;;;;10.00;3.83;;;6.30;99.90;;;;;;5057244;28;20074;-79
2021/03/04 06:47:47;;;;;;;7.93;3.67;;;6.30;99.90;;;;;;5046139;28;20068;-79
2021/03/04 06:50:25;;;;;;;7.63;3.50;;;6.40;99.90;;;;;;5039676;28;20065;-77
2021/03/04 06:52:51;;;;;;;9.25;3.83;;;6.40;99.90;;;;;;5045694;28;20049;-79
2021/03/04 06:55:17;;;;;;;11.15;3.78;;;6.50;99.90;;;;;;5039806;28;20464;-78
2021/03/04 06:58:00;;;;;;;9.65;4.28;;;6.50;99.90;;;;;;5043505;28;20036;-79
2021/03/04 07:00:27;;;;;;;9.25;3.90;;;6.50;99.90;;;;;;5044994;28;20527;-78
2021/03/04 07:02:54;;;;;;;12.02;3.80;;;6.60;99.90;;;;;;5036207;28;20111;-80
2021/03/04 07:05:21;;;;;;;10.43;3.67;;;6.60;99.90;;;;;;5044505;28;20854;-79
2021/03/04 07:07:52;;;;;;;8.70;4.00;;;6.60;99.90;;;;;;5045626;28;20061;-78
2021/03/04 07:10:19;;;;;;;11.57;3.95;;;6.60;99.90;;;;;;5046225;28;20036;-80
2021/03/04 07:12:46;;;;;;;8.45;3.65;;;6.70;99.90;;;;;;5039108;28;20064;-82
2021/03/04 07:15:14;;;;;;;12.65;4.03;;;6.70;99.90;;;;;;5046894;28;20040;-80
2021/03/04 07:17:42;;;;;;;9.95;3.83;;;6.80;99.90;;;;;;5042394;28;20017;-77
2021/03/04 07:20:15;;;;;;;10.32;3.60;;;6.90;99.90;;;;;;5040016;28;20377;-76
2021/03/04 07:22:45;;;;;;;11.95;3.97;;;6.90;99.90;;;;;;5045184;28;20468;-81
2021/03/04 07:25:12;;;;;;;8.00;3.60;;;6.90;99.90;;;;;;5054049;28;20028;-80
2021/03/04 07:27:38;;;;;;;12.18;4.30;;;7.00;99.90;;;;;;5041038;28;20059;-81
2021/03/04 07:30:06;;;;;;;9.65;3.50;;;7.10;99.90;;;;;;5046463;28;20076;-85
2021/03/04 07:32:33;;;;;;;11.23;4.40;;;7.10;99.90;;;;;;5050477;28;20408;-84
2021/03/04 07:34:59;;;;;;;13.82;4.13;;;7.20;99.90;;;;;;5043959;28;20033;-86
2021/03/04 07:37:24;;;;;;;10.23;4.30;;;7.30;99.90;;;;;;5037645;28;20033;-84
2021/03/04 07:39:58;;;;;;;9.68;3.83;;;7.30;99.90;;;;;;5032706;28;20388;-83
2021/03/04 07:42:24;;;;;;;10.43;4.10;;;7.40;99.90;;;;;;5041187;28;20373;-82
2021/03/04 07:44:50;;;;;;;10.45;4.15;;;7.50;99.90;;;;;;5048507;28;20485;-82
2021/03/04 07:47:27;;;;;;;13.70;4.93;;;7.50;99.90;;;;;;5043997;28;20036;-81
2021/03/04 07:49:53;;;;;;;9.35;4.07;;;7.60;99.90;;;;;;5050156;28;20029;-82
2021/03/04 07:52:20;;;;;;;9.70;3.72;;;7.60;99.90;;;;;;5046345;28;20048;-81
2021/03/04 07:54:48;;;;;;;10.05;4.38;;;7.70;99.90;;;;;;5046392;28;20107;-85
2021/03/04 07:57:16;;;;;;;13.35;4.00;;;7.70;99.90;;;;;;5047763;28;20022;-80
2021/03/04 07:59:59;;;;;;;14.52;4.38;;;7.80;99.90;;;;;;5064543;28;20495;-84
2021/03/04 08:02:32;;;;;;;10.85;3.42;;;7.90;99.90;;;;;;5045039;28;20055;-84
2021/03/04 08:05:12;;;;;;;8.73;3.67;;;8.00;99.90;;;;;;5042816;28;20430;-83
2021/03/04 08:07:39;;;;;;;10.63;4.03;;;7.90;99.90;;;;;;5047580;28;20029;-82
2021/03/04 08:10:10;;;;;;;14.57;4.25;;;8.00;99.90;;;;;;5047945;28;20029;-82
2021/03/04 08:12:51;;;;;;;10.45;4.30;;;8.00;99.90;;;;;;5043342;28;20124;-84
2021/03/04 08:15:22;;;;;;;9.77;3.90;;;8.10;99.90;;;;;;5043104;28;20029;-82
2021/03/04 08:17:48;;;;;;;11.70;3.90;;;8.20;99.90;;;;;;5040688;28;20115;-83
2021/03/04 08:20:16;;;;;;;10.30;4.38;;;8.20;99.90;;;;;;5043480;28;20064;-83
2021/03/04 08:22:53;;;;;;;14.80;3.83;;;8.10;99.90;;;;;;5033654;28;20017;-84
2021/03/04 08:25:26;;;;;;;10.50;4.20;;;8.30;99.90;;;;;;5040055;28;20084;-80
2021/03/04 08:27:54;;;;;;;7.57;3.25;;;8.40;99.90;;;;;;5032313;28;20033;-81
2021/03/04 08:30:34;;;;;;;12.63;3.60;;;8.40;99.90;;;;;;5038427;28;20054;-80
2021/03/04 08:33:03;;;;;;;6.28;3.45;;;8.60;99.90;;;;;;5047203;28;20071;-80
2021/03/04 08:35:29;;;;;;;6.55;3.30;;;8.70;99.90;;;;;;5032137;28;20049;-81
2021/03/04 08:37:59;;;;;;;9.25;3.45;;;8.80;99.90;;;;;;5038358;28;20060;-81
2021/03/04 08:40:25;;;;;;;9.45;3.55;;;8.80;99.90;;;;;;5045118;28;20025;-81
2021/03/04 08:42:51;;;;;;;8.25;2.95;;;8.90;99.90;;;;;;5060462;28;20469;-81
2021/03/04 08:45:30;;;;;;;8.40;3.10;;;9.10;99.90;;;;;;5046254;28;20088;-80
2021/03/04 08:47:56;;;;;;;9.75;3.60;;;9.20;99.90;;;;;;5041332;28;20104;-82
2021/03/04 08:50:35;;;;;;;8.30;3.33;;;9.20;99.90;;;;;;5048009;28;20079;-82
2021/03/04 08:53:01;;;;;;;9.93;3.30;;;9.30;99.90;;;;;;5044190;28;20021;-81
2021/03/04 08:55:27;;;;;;;9.85;3.70;;;9.30;99.90;;;;;;5042341;28;20028;-80
2021/03/04 08:57:52;;;;;;;9.25;3.20;;;9.40;99.90;;;;;;5036031;28;20028;-83
2021/03/04 09:00:18;;;;;;;7.93;3.50;;;9.50;99.90;;;;;;5033947;28;20025;-83
2021/03/04 09:02:48;;;;;;;8.82;3.78;;;9.60;99.90;;;;;;5030628;28;20091;-85
2021/03/04 09:05:22;;;;;;;11.25;3.95;;;9.60;99.90;;;;;;5043446;28;20112;-86
2021/03/04 09:07:48;;;;;;;9.57;3.67;;;9.70;99.90;;;;;;5043705;28;20127;-78
2021/03/04 09:10:15;;;;;;;8.73;3.55;;;9.70;99.90;;;;;;5046026;28;20057;-77
2021/03/04 09:12:45;;;;;;;11.10;4.13;;;9.70;99.90;;;;;;5038912;28;20065;-79
2021/03/04 09:15:17;;;;;;;9.20;4.20;;;9.70;99.90;;;;;;5039359;28;20013;-78
2021/03/04 09:17:44;;;;;;;10.43;4.60;;;9.80;99.90;;;;;;5031400;28;20151;-80
2021/03/04 09:20:11;;;;;;;10.95;4.78;;;9.90;99.90;;;;;;5029596;28;20075;-80
2021/03/04 09:22:40;;;;;;;11.93;5.20;;;9.90;99.90;;;;;;5031726;28;20024;-78
2021/03/04 09:25:12;;;;;;;12.85;5.30;;;10.00;99.90;;;;;;5036993;28;20025;-83
2021/03/04 09:27:39;;;;;;;11.95;4.60;;;10.20;99.90;;;;;;5037911;28;20464;-83
2021/03/04 09:30:07;;;;;;;10.25;4.65;;;10.30;99.90;;;;;;5037980;28;20157;-81
2021/03/04 09:32:33;;;;;;;11.38;5.45;;;10.30;99.90;;;;;;5036529;28;20152;-88
2021/03/04 09:34:59;;;;;;;12.05;4.85;;;10.20;99.90;;;;;;5048859;28;20025;-79
2021/03/04 09:37:27;;;;;;;10.90;4.93;;;10.20;99.90;;;;;;5043952;28;20477;-78
2021/03/04 09:39:55;;;;;;;11.52;4.72;;;10.20;99.90;;;;;;5043397;28;20071;-79
2021/03/04 09:42:30;;;;;;;12.32;5.60;;;10.30;99.90;;;;;;5043696;28;20060;-80
2021/03/04 09:44:59;;;;;;;13.35;5.60;;;10.40;99.90;;;;;;5034307;28;20060;-79
2021/03/04 09:47:28;;;;;;;9.95;5.07;;;10.40;99.90;;;;;;5048043;28;20025;-80
2021/03/04 09:49:54;;;;;;;11.13;4.60;;;10.50;99.90;;;;;;5049437;28;20025;-79
2021/03/04 09:52:23;;;;;;;12.32;5.72;;;10.50;99.90;;;;;;5048336;28;20130;-79
2021/03/04 09:54:49;;;;;;;13.85;5.72;;;10.60;99.90;;;;;;5034834;28;20033;-80
2021/03/04 09:57:18;;;;;;;9.77;5.45;;;10.70;99.90;;;;;;5044136;28;20500;-79
2021/03/04 09:59:52;;;;;;;10.05;5.05;;;10.80;99.90;;;;;;5039188;28;20100;-77
2021/03/04 10:02:18;;;;;;;9.93;5.22;;;10.90;99.90;;;;;;5034890;28;20030;-79
2021/03/04 10:04:52;;;;;;;11.25;5.10;;;10.90;99.90;;;;;;5038140;28;20021;-79
2021/03/04 10:07:22;;;;;;;11.40;5.47;;;11.00;99.90;;;;;;5041871;28;20767;-79
2021/03/04 10:09:48;;;;;;;10.70;5.07;;;11.00;99.90;;;;;;5041354;28;20191;-80
2021/03/04 10:12:13;;;;;;;13.15;5.75;;;11.10;99.90;;;;;;5048208;28;20029;-80
2021/03/04 10:14:47;;;;;;;8.85;4.80;;;11.10;99.90;;;;;;5043574;28;20029;-78
2021/03/04 10:17:13;;;;;;;12.38;4.72;;;11.10;99.90;;;;;;5032732;28;20037;-79
2021/03/04 10:19:40;;;;;;;8.35;4.50;;;11.00;99.90;;;;;;5034997;28;20083;-78
2021/03/04 10:22:06;;;;;;;10.63;4.50;;;11.10;99.90;;;;;;5032185;28;20029;-79
2021/03/04 10:24:32;;;;;;;7.63;4.28;;;11.10;99.90;;;;;;5036555;28;20090;-79
2021/03/04 10:26:59;;;;;;;9.82;4.65;;;11.10;99.90;;;;;;5040447;28;20033;-79
2021/03/04 10:29:29;;;;;;;8.60;4.60;;;11.00;99.90;;;;;;5035324;28;20570;-79
2021/03/04 10:31:55;;;;;;;13.40;4.50;;;11.10;99.90;;;;;;5032357;28;20045;-78
2021/03/04 10:34:21;;;;;;;9.02;4.35;;;11.00;99.90;;;;;;5035003;28;20400;-80
2021/03/04 10:36:47;;;;;;;9.48;4.55;;;11.10;99.90;;;;;;5041108;28;20076;-79
2021/03/04 10:39:17;;;;;;;9.82;5.38;;;11.10;99.90;;;;;;5031584;28;20462;-78
2021/03/04 10:41:43;;;;;;;;;;;11.00;99.90;;;;;;5042692;28;20135;-78
2021/03/04 10:44:10;;;;;;;10.10;4.65;;;11.00;99.90;;;;;;5048648;28;20257;-78
2021/03/04 10:46:36;;;;;;;14.15;4.93;;;11.10;99.90;;;;;;5040582;28;20633;-79
2021/03/04 10:49:03;;;;;;;9.85;4.40;;;11.10;99.90;;;;;;5040906;28;20108;-78
2021/03/04 10:51:29;;;;;;;9.45;4.05;;;11.20;99.90;;;;;;5049587;28;20033;-79
2021/03/04 10:53:55;;;;;;;10.18;4.75;;;11.30;99.90;;;;;;5044663;28;20017;-78
2021/03/04 10:56:21;;;;;;;13.45;4.78;;;11.30;99.90;;;;;;5035529;28;20044;-79
2021/03/04 10:58:46;;;;;;;10.85;4.80;;;11.40;99.90;;;;;;5046386;28;20132;-78
2021/03/04 11:01:12;;;;;;;12.43;5.28;;;11.40;99.90;;;;;;5042191;28;20036;-83
2021/03/04 11:03:38;;;;;;;10.43;4.93;;;11.50;99.90;;;;;;5052781;28;20027;-83
2021/03/04 11:06:03;;;;;;;12.95;5.55;;;11.60;99.90;;;;;;5045187;28;20159;-81
2021/03/04 11:08:29;;;;;;;12.52;5.68;;;11.70;99.90;;;;;;5045691;28;20044;-83
2021/03/04 11:10:55;;;;;;;11.50;5.65;;;11.80;99.60;;;;;;5043850;28;20036;-83
2021/03/04 11:13:20;;;;;;;10.10;5.55;;;12.10;99.70;;;;;;5066554;28;20029;-82
2021/03/04 11:15:46;;;;;;;13.75;5.93;;;12.10;99.60;;;;;;5047477;28;20083;-80
2021/03/04 11:18:12;;;;;;;11.55;5.72;;;12.30;99.60;;;;;;5039315;28;20025;-80
2021/03/04 11:20:38;;;;;;;12.43;6.18;;;12.40;99.60;;;;;;5044156;28;20090;-79
2021/03/04 11:23:03;;;;;;;15.25;6.07;;;12.30;98.70;;;;;;5037953;28;20052;-81
2021/03/04 11:25:29;;;;;;;12.80;5.47;;;12.40;99.10;;;;;;5051087;28;20035;-82
2021/03/04 11:27:55;;;;;;;13.30;6.22;;;12.60;99.00;;;;;;5042941;28;20029;-80
2021/03/04 11:30:21;;;;;;;12.93;6.38;;;12.70;98.80;;;;;;5043812;28;20061;-78
2021/03/04 11:32:46;;;;;;;11.77;5.60;;;12.70;98.80;;;;;;5045048;28;20175;-80
2021/03/04 11:35:12;;;;;;;13.13;5.53;;;12.50;98.60;;;;;;5045068;28;20112;-80
2021/03/04 11:37:38;;;;;;;11.05;6.00;;;12.50;98.70;;;;;;5044187;28;20029;-78
2021/03/04 11:40:04;;;;;;;10.18;5.72;;;12.50;98.80;;;;;;5032059;28;20129;-82
2021/03/04 11:42:30;;;;;;;14.05;7.00;;;12.60;98.40;;;;;;5040138;28;20377;-83
2021/03/04 11:44:55;;;;;;;13.23;6.30;;;12.60;98.40;;;;;;5052373;28;20009;-78
2021/03/04 11:47:21;;;;;;;11.55;5.90;;;12.80;98.20;;;;;;5056926;28;20479;-82
2021/03/04 11:49:47;;;;;;;9.32;5.35;;;12.70;98.30;;;;;;5046366;28;20507;-79
2021/03/04 11:52:13;;;;;;;11.52;6.20;;;12.70;98.00;;;;;;5044235;28;20105;-79
2021/03/04 11:54:38;;;;;;;13.73;6.55;;;12.80;98.30;;;;;;5036869;28;20040;-78
2021/03/04 11:57:04;;;;;;;17.00;6.63;;;12.90;98.70;;;;;;5033604;28;20105;-79
2021/03/04 11:59:30;;;;;;;17.20;5.90;;;13.10;98.50;;;;;;5050506;28;20024;-79
2021/03/04 12:01:56;;;;;;;14.73;6.70;;;13.10;98.30;;;;;;5051264;28;20024;-79
2021/03/04 12:04:22;;;;;;;12.02;6.35;;;13.40;98.70;;;;;;5031234;28;20040;-79
2021/03/04 12:06:48;;;;;;;11.15;5.57;;;13.50;97.70;;;;;;5051373;28;20033;-79
2021/03/04 12:09:13;;;;;;;13.35;6.13;;;13.70;98.20;;;;;;5032504;28;20025;-78
2021/03/04 12:11:39;;;;;;;11.02;4.70;;;13.50;97.40;;;;;;5044159;28;20037;-78
2021/03/04 12:14:05;;;;;;;12.65;5.78;;;13.70;96.70;;;;;;5050761;28;20025;-78
2021/03/04 12:16:30;;;;;;;15.88;5.72;;;13.80;97.10;;;;;;5051239;28;20025;-78
2021/03/04 12:18:56;;;;;;;12.82;5.20;;;14.00;97.00;;;;;;5040947;28;20025;-81
2021/03/04 12:21:23;;;;;;;12.80;5.25;;;14.10;96.50;;;;;;5037419;28;20075;-80
2021/03/04 12:23:49;;;;;;;14.20;6.05;;;14.30;96.40;;;;;;5050989;28;20059;-79
2021/03/04 12:26:15;;;;;;;13.80;6.20;;;13.90;96.40;;;;;;5045224;28;20029;-80
2021/03/04 12:28:40;;;;;;;15.02;6.30;;;14.00;96.70;;;;;;5041011;28;20030;-82
2021/03/04 12:31:06;;;;;;;14.95;6.05;;;14.00;96.40;;;;;;5046943;28;20408;-82
2021/03/04 12:33:32;;;;;;;15.25;6.22;;;13.90;96.20;;;;;;5041466;28;20033;-81
2021/03/04 12:35:58;;;;;;;20.08;7.00;;;13.80;96.20;;;;;;5045806;28;20021;-81
2021/03/04 12:38:23;;;;;;;13.10;6.68;;;13.80;96.40;;;;;;5042073;28;20074;-81
2021/03/04 12:40:49;;;;;;;14.07;6.40;;;13.90;96.30;;;;;;5032304;28;20125;-80
2021/03/04 12:43:14;;;;;;;14.43;6.00;;;14.00;96.30;;;;;;5039611;28;20033;-81
2021/03/04 12:45:40;;;;;;;11.90;5.43;;;14.20;96.20;;;;;;5050985;28;20025;-78
2021/03/04 12:48:06;;;;;;;12.70;5.80;;;14.10;95.80;;;;;;5037912;28;20033;-79
2021/03/04 12:50:32;;;;;;;15.35;6.28;;;14.00;95.80;;;;;;5044798;28;20150;-79
2021/03/04 12:52:57;;;;;;;17.92;6.38;;;14.00;96.10;;;;;;5060464;28;20072;-85